Time;durP1;ratioP1;P1;durP2;ratioP2;P2;SDS_P1;SDS_P2;PMS_P1;PMS_P2;Temp;Humidity;BMP_temperature;BMP_pressure;BME280_temperature;BME280_humidity;BME280_pressure;Samples;Min_cycle;Max_cycle;Signal;HPM_P1;HPM_P2
2022/07/17 00:00:18;;;;;;;4.90;1.88;;;;;;;12.69;88.27;101833.97;698994;28;1042;-43
2022/07/17 00:00:42;;;;;;;4.45;1.80;;;;;;;12.76;86.48;101834.00;699140;28;1130;-44
2022/07/17 00:01:02;;;;;;;3.53;1.80;;;;;;;12.78;86.97;101834.03;698380;28;1791;-43
2022/07/17 00:01:23;;;;;;;4.53;2.03;;;;;;;12.82;86.44;101827.94;698408;28;1245;-42
2022/07/17 00:01:43;;;;;;;4.80;1.90;;;;;;;12.87;85.57;101828.81;698192;28;897;-44
2022/07/17 00:02:03;;;;;;;4.37;1.97;;;;;;;12.90;86.10;101831.47;693356;28;1226;-42
2022/07/17 00:02:24;;;;;;;4.00;2.08;;;;;;;12.88;85.81;101833.19;693652;28;4385;-44
2022/07/17 00:02:44;;;;;;;4.60;1.87;;;;;;;12.87;86.10;101826.19;694626;28;1088;-42
2022/07/17 00:03:05;;;;;;;3.83;1.70;;;;;;;12.88;85.35;101829.72;694400;28;927;-44
2022/07/17 00:03:25;;;;;;;4.00;1.70;;;;;;;12.87;87.22;101828.81;694707;28;1292;-42
2022/07/17 00:03:45;;;;;;;3.77;1.80;;;;;;;12.85;87.74;101830.56;695971;28;1254;-42
2022/07/17 00:04:06;;;;;;;4.43;1.90;;;;;;;12.77;87.68;101829.66;694204;28;1111;-43
2022/07/17 00:04:26;;;;;;;5.97;2.00;;;;;;;12.79;87.56;101835.75;696251;28;867;-44
2022/07/17 00:04:47;;;;;;;4.85;1.88;;;;;;;12.76;87.60;101833.13;691298;28;1195;-43
2022/07/17 00:05:08;;;;;;;4.60;1.90;;;;;;;12.75;87.36;101829.66;690562;28;1762;-43
2022/07/17 00:05:28;;;;;;;4.68;1.90;;;;;;;12.73;87.82;101833.13;692240;28;4492;-43
2022/07/17 00:05:48;;;;;;;3.93;1.97;;;;;;;12.69;88.07;101833.97;692203;28;1185;-42
2022/07/17 00:06:09;;;;;;;4.90;1.83;;;;;;;12.64;87.92;101830.44;692899;28;1205;-42
2022/07/17 00:06:29;;;;;;;4.70;2.00;;;;;;;12.60;88.60;101830.44;694763;28;1128;-42
2022/07/17 00:06:49;;;;;;;5.45;2.20;;;;;;;12.62;88.21;101830.44;694103;28;1103;-42
2022/07/17 00:07:10;;;;;;;3.67;1.80;;;;;;;12.67;87.47;101833.09;692829;28;1103;-44
2022/07/17 00:07:30;;;;;;;3.43;1.50;;;;;;;12.71;86.83;101827.88;692430;28;890;-43
2022/07/17 00:07:50;;;;;;;4.03;1.60;;;;;;;12.76;86.71;101826.13;693232;28;1995;-42
2022/07/17 00:08:12;;;;;;;4.17;1.80;;;;;;;12.77;87.68;101832.28;693160;28;1733;-42
2022/07/17 00:08:32;;;;;;;4.65;1.90;;;;;;;12.81;87.42;101826.16;694821;28;4322;-43
2022/07/17 00:08:53;;;;;;;4.37;1.93;;;;;;;12.79;87.90;101830.53;699645;28;1151;-43
2022/07/17 00:09:13;;;;;;;4.18;1.90;;;;;;;12.75;88.13;101834.00;700902;28;1196;-42
2022/07/17 00:09:34;;;;;;;4.10;1.77;;;;;;;12.74;88.52;101822.63;701218;28;878;-42
2022/07/17 00:09:54;;;;;;;3.67;1.90;;;;;;;12.73;88.33;101830.50;699569;28;1274;-43
2022/07/17 00:10:16;;;;;;;4.10;1.70;;;;;;;12.69;88.74;101828.72;699768;28;1240;-42
2022/07/17 00:10:40;;;;;;;4.07;1.70;;;;;;;12.60;89.50;101829.56;699216;28;1211;-43
2022/07/17 00:11:01;;;;;;;4.05;1.80;;;;;;;12.47;89.15;101828.59;699096;28;1007;-42
2022/07/17 00:11:21;;;;;;;4.60;1.90;;;;;;;12.36;89.44;101831.16;698737;28;4376;-44
2022/07/17 00:11:42;;;;;;;4.53;2.10;;;;;;;12.32;89.36;101834.63;693457;28;1759;-44
2022/07/17 00:12:02;;;;;;;4.33;1.93;;;;;;;12.27;89.31;101831.97;694088;28;885;-42
2022/07/17 00:12:23;;;;;;;4.35;1.80;;;;;;;12.27;89.22;101829.34;694280;28;1299;-43
2022/07/17 00:12:44;;;;;;;4.00;1.70;;;;;;;12.26;90.04;101831.97;689105;28;1446;-42
2022/07/17 00:13:05;;;;;;;6.03;2.00;;;;;;;12.20;90.56;101832.81;688365;28;1143;-42
2022/07/17 00:13:26;;;;;;;5.80;1.88;;;;;;;12.19;90.25;101831.03;688820;28;970;-42
2022/07/17 00:13:46;;;;;;;5.23;2.00;;;;;;;12.18;90.91;101831.91;692189;28;1118;-42
2022/07/17 00:14:06;;;;;;;4.30;2.03;;;;;;;12.20;90.74;101838.06;690572;28;1074;-44
2022/07/17 00:14:27;;;;;;;4.97;1.90;;;;;;;12.18;91.13;101831.91;693154;28;4577;-43
2022/07/17 00:14:47;;;;;;;4.47;1.90;;;;;;;12.21;89.87;101839.81;699829;28;1011;-42
2022/07/17 00:15:09;;;;;;;3.57;1.87;;;;;;;12.24;90.52;101833.72;698680;28;1820;-42
2022/07/17 00:15:30;;;;;;;4.68;1.95;;;;;;;12.26;90.03;101835.47;700369;28;1250;-43
2022/07/17 00:15:51;;;;;;;4.50;1.67;;;;;;;12.36;88.99;101832.91;699523;28;1139;-43
2022/07/17 00:16:11;;;;;;;3.30;1.70;;;;;;;12.43;89.19;101837.31;700238;28;1039;-42
2022/07/17 00:16:31;;;;;;;4.67;1.83;;;;;;;12.49;88.10;101833.84;699384;28;1157;-41
2022/07/17 00:16:53;;;;;;;3.90;1.80;;;;;;;12.47;88.65;101833.84;700196;28;867;-43
2022/07/17 00:17:14;;;;;;;3.88;2.00;;;;;;;12.51;89.13;101838.25;697374;28;950;-44
2022/07/17 00:17:34;;;;;;;5.72;2.17;;;;;;;12.52;89.02;101829.50;697868;28;4362;-45
2022/07/17 00:17:55;;;;;;;3.30;1.73;;;;;;;12.57;88.64;101835.69;696688;28;3796;-42
2022/07/17 00:18:15;;;;;;;2.95;1.80;;;;;;;12.62;88.15;101832.19;697306;28;1173;-42
2022/07/17 00:18:35;;;;;;;4.13;1.63;;;;;;;12.68;87.62;101832.22;700374;28;1261;-43
2022/07/17 00:18:56;;;;;;;3.63;1.85;;;;;;;12.62;88.75;101833.06;696363;28;1204;-42
2022/07/17 00:19:16;;;;;;;3.70;1.80;;;;;;;12.50;89.47;101833.00;696145;28;1610;-41
2022/07/17 00:19:37;;;;;;;4.47;2.00;;;;;;;12.44;88.30;101832.09;696340;28;911;-41
2022/07/17 00:19:57;;;;;;;4.85;2.10;;;;;;;12.47;88.37;101831.22;696922;28;1012;-41
2022/07/17 00:20:18;;;;;;;5.60;2.00;;;;;;;12.57;88.62;101827.81;694022;28;1297;-42
2022/07/17 00:20:38;;;;;;;4.38;1.80;;;;;;;12.51;89.73;101833.00;690859;28;4248;-41
2022/07/17 00:20:59;;;;;;;4.83;1.90;;;;;;;12.48;89.54;101835.63;694295;28;1434;-41
2022/07/17 00:21:19;;;;;;;4.53;1.67;;;;;;;12.43;89.79;101832.06;693096;28;1114;-42
2022/07/17 00:21:39;;;;;;;4.53;1.70;;;;;;;12.46;88.31;101837.38;694122;28;1258;-41
2022/07/17 00:22:00;;;;;;;5.27;1.80;;;;;;;12.55;87.43;101834.78;694428;28;1032;-42
2022/07/17 00:22:20;;;;;;;4.83;1.80;;;;;;;12.56;88.85;101831.28;696046;28;1613;-43
2022/07/17 00:22:42;;;;;;;7.20;1.90;;;;;;;12.54;88.81;101835.63;699650;28;1037;-42
2022/07/17 00:23:03;;;;;;;3.90;1.80;;;;;;;12.50;89.23;101833.00;696210;28;1206;-42
2022/07/17 00:23:23;;;;;;;3.60;1.67;;;;;;;12.42;89.55;101830.34;696445;28;4509;-41
2022/07/17 00:23:44;;;;;;;4.23;2.00;;;;;;;12.35;89.60;101836.38;696723;28;1071;-43
2022/07/17 00:24:06;;;;;;;4.67;1.90;;;;;;;12.39;88.96;101830.31;696224;28;1107;-41
2022/07/17 00:24:27;;;;;;;3.92;1.70;;;;;;;12.47;88.52;101819.88;696611;28;1605;-41
2022/07/17 00:24:47;;;;;;;3.67;1.77;;;;;;;12.58;87.89;101831.28;696647;28;1063;-44
2022/07/17 00:25:09;;;;;;;4.30;1.83;;;;;;;12.62;87.41;101826.94;695520;28;1972;-43
2022/07/17 00:25:32;;;;;;;5.47;2.00;;;;;;;12.66;87.95;101826.09;696079;28;1202;-43
2022/07/17 00:25:58;;;;;;;6.35;1.90;;;;;;;12.52;89.39;101841.75;694510;28;1161;-41
2022/07/17 00:26:18;;;;;;;4.45;1.80;;;;;;;12.35;90.10;101831.16;695010;28;1047;-42
2022/07/17 00:26:39;;;;;;;5.50;1.97;;;;;;;12.25;90.65;101833.72;699260;28;4347;-42
2022/07/17 00:26:59;;;;;;;4.88;2.10;;;;;;;12.19;90.60;101828.44;697756;28;1290;-41
2022/07/17 00:27:19;;;;;;;4.80;2.17;;;;;;;12.14;90.23;101824.88;694320;28;1361;-41
2022/07/17 00:27:40;;;;;;;3.67;1.90;;;;;;;12.21;90.10;101836.28;691291;28;1790;-44
2022/07/17 00:28:01;;;;;;;3.33;1.70;;;;;;;12.25;89.69;101828.47;691424;28;1937;-42
2022/07/17 00:28:21;;;;;;;3.78;1.77;;;;;;;12.36;88.79;101828.53;692322;28;1377;-41
2022/07/17 00:28:41;;;;;;;3.50;1.67;;;;;;;12.44;88.93;101831.22;692811;28;1119;-42
2022/07/17 00:29:03;;;;;;;4.70;1.70;;;;;;;12.48;88.56;101825.13;695928;28;1237;-42
2022/07/17 00:29:23;;;;;;;4.85;1.83;;;;;;;12.53;88.21;101823.41;694565;28;4283;-42
2022/07/17 00:29:44;;;;;;;3.83;1.92;;;;;;;12.54;88.16;101822.53;698120;28;1186;-44
2022/07/17 00:30:05;;;;;;;5.07;2.00;;;;;;;12.50;89.07;101823.41;697304;28;1142;-42
2022/07/17 00:30:26;;;;;;;5.60;1.98;;;;;;;12.43;89.66;101824.22;697400;28;1451;-42
2022/07/17 00:30:46;;;;;;;3.88;1.90;;;;;;;12.38;89.90;101828.56;698611;28;1028;-42
2022/07/17 00:31:07;;;;;;;4.63;1.80;;;;;;;12.41;88.41;101824.19;696724;28;1660;-43
2022/07/17 00:31:27;;;;;;;5.07;1.90;;;;;;;12.48;87.95;101819.88;701380;28;780;-43
2022/07/17 00:31:48;;;;;;;4.73;1.90;;;;;;;12.50;88.25;101826.03;700797;28;887;-42
2022/07/17 00:32:08;;;;;;;5.03;1.90;;;;;;;12.47;89.24;101830.34;700659;28;1268;-43
2022/07/17 00:32:28;;;;;;;4.60;1.80;;;;;;;12.43;88.49;101829.44;700053;28;4460;-42
2022/07/17 00:32:49;;;;;;;5.60;1.73;;;;;;;12.55;87.66;101826.91;699394;28;1306;-42
2022/07/17 00:33:09;;;;;;;5.07;1.80;;;;;;;12.58;88.79;101826.03;699839;28;1001;-42
2022/07/17 00:33:30;;;;;;;4.73;2.10;;;;;;;12.50;89.46;101820.78;700505;28;1134;-42
2022/07/17 00:33:50;;;;;;;5.05;2.00;;;;;;;12.39;89.87;101833.81;697429;28;1138;-42
2022/07/17 00:34:10;;;;;;;4.23;1.90;;;;;;;12.31;89.80;101826.75;693810;28;1170;-43
2022/07/17 00:34:31;;;;;;;3.58;1.80;;;;;;;12.30;89.00;101825.03;695857;28;1543;-44
2022/07/17 00:34:51;;;;;;;3.87;2.00;;;;;;;12.26;90.18;101821.47;695930;28;1339;-43
2022/07/17 00:35:12;;;;;;;4.38;1.92;;;;;;;12.17;90.56;101822.31;693219;28;1743;-43
2022/07/17 00:35:33;;;;;;;5.07;2.00;;;;;;;12.18;90.00;101825.78;693761;28;4429;-43
2022/07/17 00:35:53;;;;;;;3.60;1.90;;;;;;;12.20;90.09;101830.19;698868;28;1082;-42
2022/07/17 00:36:13;;;;;;;4.67;1.70;;;;;;;12.26;89.35;101824.97;696356;28;1306;-42
2022/07/17 00:36:34;;;;;;;6.03;2.00;;;;;;;12.31;89.88;101818.88;693429;28;1973;-43
2022/07/17 00:36:54;;;;;;;4.13;1.90;;;;;;;12.32;89.98;101824.13;694592;28;1061;-43
2022/07/17 00:37:14;;;;;;;3.22;1.88;;;;;;;12.24;90.87;101818.00;692204;28;1222;-42
2022/07/17 00:37:42;;;;;;;4.53;2.07;;;;;;;12.06;91.91;101822.22;691012;28;1106;-42
2022/07/17 00:38:03;;;;;;;4.88;2.00;;;;;;;11.90;92.61;101821.19;691333;28;1230;-43
2022/07/17 00:38:23;;;;;;;4.43;2.05;;;;;;;11.82;92.70;101827.22;691328;28;4480;-44
2022/07/17 00:38:44;;;;;;;3.80;1.87;;;;;;;11.80;93.38;101815.88;695522;28;1075;-42
2022/07/17 00:39:04;;;;;;;3.93;1.87;;;;;;;11.83;92.48;101824.63;696552;28;1158;-42
2022/07/17 00:39:24;;;;;;;5.27;2.07;;;;;;;11.95;91.56;101823.00;699632;28;1130;-45
2022/07/17 00:39:45;;;;;;;5.53;2.03;;;;;;;11.98;91.57;101823.91;699764;28;1270;-41
2022/07/17 00:40:07;;;;;;;4.43;2.00;;;;;;;12.08;90.40;101819.63;698569;28;1063;-42
2022/07/17 00:40:27;;;;;;;4.13;2.00;;;;;;;12.14;90.25;101817.03;700683;28;5097;-42
2022/07/17 00:40:47;;;;;;;5.73;1.97;;;;;;;12.18;90.36;101817.94;701342;28;1030;-42
2022/07/17 00:41:09;;;;;;;4.15;2.00;;;;;;;12.20;89.54;101822.31;699839;28;1098;-42
2022/07/17 00:41:29;;;;;;;4.18;1.83;;;;;;;12.26;88.59;101824.97;699943;28;4426;-42
2022/07/17 00:41:52;;;;;;;4.40;1.75;;;;;;;12.30;89.13;101814.53;700447;28;1062;-43
2022/07/17 00:42:14;;;;;;;4.35;1.95;;;;;;;12.34;90.20;101818.94;697615;28;1599;-42
2022/07/17 00:42:34;;;;;;;5.22;1.92;;;;;;;12.27;91.04;101828.50;696674;28;1083;-42
2022/07/17 00:42:55;;;;;;;4.32;2.00;;;;;;;12.23;91.29;101822.34;695910;28;1159;-42
2022/07/17 00:43:15;;;;;;;4.37;2.20;;;;;;;12.19;91.82;101820.56;692864;28;1285;-42
2022/07/17 00:43:36;;;;;;;3.83;1.90;;;;;;;12.15;91.36;101818.78;694767;28;1132;-42
2022/07/17 00:44:11;;;;;;;4.30;2.00;;;;;;;12.18;90.15;101824.03;696028;28;1080;-43
2022/07/17 00:44:32;;;;;;;4.35;2.10;;;;;;;12.16;90.51;101823.16;694160;28;5273;-42
2022/07/17 00:44:52;;;;;;;5.40;2.00;;;;;;;12.18;90.79;101824.03;696865;28;1054;-44
2022/07/17 00:45:13;;;;;;;5.63;2.00;;;;;;;12.20;90.57;101818.84;697639;28;1721;-42
2022/07/17 00:45:34;;;;;;;4.15;1.90;;;;;;;12.23;89.30;101821.47;700752;28;1161;-42
2022/07/17 00:45:59;;;;;;;4.22;1.90;;;;;;;12.25;89.27;101823.25;700082;28;853;-41
2022/07/17 00:46:20;;;;;;;4.68;2.00;;;;;;;12.23;91.23;101824.97;699118;28;1081;-42
2022/07/17 00:46:41;;;;;;;4.80;2.03;;;;;;;12.31;90.13;101827.66;699784;28;1388;-42
2022/07/17 00:47:01;;;;;;;3.95;1.77;;;;;;;12.43;88.37;101822.47;699570;28;1141;-43
2022/07/17 00:47:22;;;;;;;3.23;1.70;;;;;;;12.47;89.10;101823.34;698794;28;4319;-45
2022/07/17 00:48:04;;;;;;;3.72;1.92;;;;;;;12.45;88.63;101819.88;700342;28;1681;-42
2022/07/17 00:48:25;;;;;;;4.32;1.60;;;;;;;12.49;88.41;101826.88;699082;28;1149;-44
2022/07/17 00:48:46;;;;;;;3.88;1.70;;;;;;;12.49;88.30;101821.63;701151;28;1110;-44
2022/07/17 00:49:07;;;;;;;5.18;1.80;;;;;;;12.48;87.14;101819.88;699408;28;1335;-42
2022/07/17 00:49:27;;;;;;;4.38;1.80;;;;;;;12.46;87.45;101824.25;700301;28;1252;-42
2022/07/17 00:49:48;;;;;;;4.60;1.80;;;;;;;12.44;88.05;101823.34;700325;28;1114;-42
2022/07/17 00:50:08;;;;;;;4.37;1.80;;;;;;;12.38;89.54;101818.06;698581;28;1225;-42
2022/07/17 00:50:34;;;;;;;4.57;1.90;;;;;;;12.33;90.08;101817.16;699717;28;4400;-45
2022/07/17 00:50:55;;;;;;;4.50;2.00;;;;;;;12.32;90.47;101825.88;702190;28;1331;-43
2022/07/17 00:51:15;;;;;;;3.58;1.80;;;;;;;12.33;89.54;101825.03;700216;28;1341;-44
2022/07/17 00:51:36;;;;;;;4.80;1.80;;;;;;;12.33;89.46;101819.78;700588;28;1356;-44
2022/07/17 00:51:56;;;;;;;4.57;1.70;;;;;;;12.24;90.74;101818.84;700775;28;1293;-42
2022/07/17 00:52:18;;;;;;;4.40;1.80;;;;;;;12.13;91.23;101823.16;700326;28;1623;-43
2022/07/17 00:52:38;;;;;;;5.03;1.88;;;;;;;12.03;91.83;101827.44;696716;28;1138;-42
2022/07/17 00:52:59;;;;;;;3.93;1.80;;;;;;;12.01;91.18;101825.69;696227;28;1086;-42
2022/07/17 00:53:20;;;;;;;5.28;2.00;;;;;;;12.04;90.75;101820.44;693148;28;4444;-41
2022/07/17 00:53:42;;;;;;;5.40;2.33;;;;;;;12.09;89.82;101821.38;695417;28;1099;-43
2022/07/17 00:54:03;;;;;;;4.22;2.13;;;;;;;12.18;89.79;101823.19;691448;28;1193;-44
2022/07/17 00:54:24;;;;;;;3.65;1.90;;;;;;;12.21;90.19;101821.47;690197;28;1119;-42
2022/07/17 00:54:46;;;;;;;3.85;1.83;;;;;;;12.27;89.24;101820.63;692662;28;1158;-42
2022/07/17 00:55:08;;;;;;;4.35;1.80;;;;;;;12.24;91.23;101818.84;690835;28;1192;-43
2022/07/17 00:55:29;;;;;;;4.25;1.80;;;;;;;12.19;91.50;101817.94;695513;28;1177;-43
2022/07/17 00:55:50;;;;;;;4.68;1.80;;;;;;;12.13;91.40;101822.25;695724;28;1126;-43
2022/07/17 00:56:12;;;;;;;5.18;1.85;;;;;;;11.96;92.42;101819.50;695646;28;1636;-41
2022/07/17 00:56:33;;;;;;;4.05;2.00;;;;;;;11.81;93.74;101825.47;697679;28;4462;-42
2022/07/17 00:56:56;;;;;;;3.80;1.90;;;;;;;11.74;92.70;101820.19;697015;28;1555;-42
2022/07/17 00:57:18;;;;;;;3.90;1.73;;;;;;;11.76;93.31;101822.81;695466;28;1207;-42
2022/07/17 00:57:40;;;;;;;5.35;2.08;;;;;;;11.80;92.50;101818.50;699411;28;1066;-43
2022/07/17 00:58:03;;;;;;;4.38;1.98;;;;;;;11.85;93.26;101822.00;697859;28;1276;-42
2022/07/17 00:58:25;;;;;;;2.85;1.65;;;;;;;11.88;92.97;101822.03;699319;28;1118;-43
2022/07/17 00:58:48;;;;;;;3.35;1.80;;;;;;;11.89;93.27;101824.69;698769;28;1681;-44
2022/07/17 00:59:09;;;;;;;4.82;1.80;;;;;;;11.84;92.06;101815.91;699076;28;1035;-42
2022/07/17 00:59:33;;;;;;;5.18;1.85;;;;;;;11.86;92.37;101819.41;696249;28;4291;-42
2022/07/17 00:59:53;;;;;;;4.85;2.00;;;;;;;11.85;91.94;101816.75;697248;28;1116;-42
2022/07/17 01:00:16;;;;;;;3.53;2.03;;;;;;;11.88;91.66;101819.41;695200;28;1099;-43
2022/07/17 01:00:36;;;;;;;3.80;2.10;;;;;;;11.84;92.51;101815.91;696746;28;1180;-42
2022/07/17 01:00:56;;;;;;;3.72;1.88;;;;;;;11.75;93.37;101824.56;694610;28;1080;-42
2022/07/17 01:01:18;;;;;;;4.00;1.90;;;;;;;11.78;92.17;101815.84;695107;28;1060;-43
2022/07/17 01:01:38;;;;;;;5.35;1.90;;;;;;;11.77;92.82;101819.34;695871;28;2104;-42
2022/07/17 01:01:59;;;;;;;4.60;1.80;;;;;;;11.81;92.92;101822.84;697870;28;1214;-42
2022/07/17 01:02:19;;;;;;;3.28;2.10;;;;;;;11.76;94.01;101817.56;693834;28;1000;-43
2022/07/17 01:02:39;;;;;;;4.73;2.10;;;;;;;11.70;93.99;101817.50;692938;28;4409;-42
2022/07/17 01:03:01;;;;;;;4.63;1.70;;;;;;;11.64;94.44;101817.47;691104;28;1146;-44
2022/07/17 01:03:24;;;;;;;4.40;1.90;;;;;;;11.51;94.77;101817.34;693848;28;1220;-42
2022/07/17 01:03:45;;;;;;;3.78;1.80;;;;;;;11.50;93.59;101819.94;697482;28;1228;-42
2022/07/17 01:04:06;;;;;;;4.35;2.00;;;;;;;11.59;94.03;101820.03;697830;28;1090;-42
2022/07/17 01:04:26;;;;;;;3.87;1.90;;;;;;;11.60;94.38;101821.78;697316;28;1251;-44
2022/07/17 01:04:46;;;;;;;3.87;1.90;;;;;;;11.57;94.87;101821.75;697332;28;949;-42
2022/07/17 01:05:07;;;;;;;4.28;1.88;;;;;;;11.51;95.09;101825.19;697003;28;1030;-43
2022/07/17 01:05:27;;;;;;;4.20;2.00;;;;;;;11.49;95.50;101823.41;693390;28;4312;-42
2022/07/17 01:05:48;;;;;;;3.55;2.00;;;;;;;11.49;95.45;101821.69;694735;28;1027;-42
2022/07/17 01:06:09;;;;;;;5.63;1.90;;;;;;;11.45;95.21;101821.63;693797;28;1969;-44
2022/07/17 01:06:29;;;;;;;3.97;1.90;;;;;;;11.48;94.73;101817.31;696332;28;1789;-43
2022/07/17 01:06:50;;;;;;;3.07;1.90;;;;;;;11.51;94.32;101821.72;698405;28;1121;-44
2022/07/17 01:07:10;;;;;;;3.20;1.90;;;;;;;11.52;94.43;101821.72;695815;28;1858;-44
2022/07/17 01:07:31;;;;;;;3.85;1.90;;;;;;;11.53;94.25;101823.50;698060;28;1654;-42
2022/07/17 01:07:52;;;;;;;4.63;1.85;;;;;;;11.57;93.11;101817.41;695468;28;1910;-42
2022/07/17 01:08:13;;;;;;;5.55;2.05;;;;;;;11.50;95.27;101815.56;697630;28;1114;-47
2022/07/17 01:08:34;;;;;;;5.30;2.03;;;;;;;11.47;95.25;101819.94;696735;28;4384;-43
2022/07/17 01:08:54;;;;;;;5.45;2.30;;;;;;;11.49;95.86;101820.81;695570;28;1882;-43
2022/07/17 01:09:14;;;;;;;4.00;1.90;;;;;;;11.51;94.89;101819.97;694207;28;1259;-44
2022/07/17 01:09:35;;;;;;;4.20;2.03;;;;;;;11.52;95.11;101819.09;699308;28;1169;-42
2022/07/17 01:09:55;;;;;;;5.00;2.15;;;;;;;11.47;95.67;101820.78;698708;28;1186;-43
2022/07/17 01:10:17;;;;;;;4.68;2.17;;;;;;;11.48;95.31;101813.81;695262;28;1079;-42
2022/07/17 01:10:38;;;;;;;6.30;2.05;;;;;;;11.49;96.13;101813.84;696525;28;1280;-42
2022/07/17 01:10:58;;;;;;;4.25;2.00;;;;;;;11.49;95.06;101819.09;698444;28;1172;-44
2022/07/17 01:11:20;;;;;;;4.07;1.92;;;;;;;11.52;94.67;101823.44;695484;28;1058;-42
2022/07/17 01:11:40;;;;;;;4.53;1.90;;;;;;;11.53;94.61;101815.63;695275;28;4550;-42
2022/07/17 01:12:01;;;;;;;3.73;1.90;;;;;;;11.55;94.34;101818.25;695737;28;1004;-43
2022/07/17 01:12:23;;;;;;;3.92;1.88;;;;;;;11.51;96.10;101816.47;698643;28;1018;-42
2022/07/17 01:12:44;;;;;;;5.30;1.90;;;;;;;11.47;96.20;101823.41;699219;28;1177;-44
2022/07/17 01:13:05;;;;;;;4.53;2.03;;;;;;;11.52;94.06;101819.09;697762;28;1090;-45
2022/07/17 01:13:26;;;;;;;4.38;1.83;;;;;;;11.57;93.57;101812.19;696024;28;1296;-43
2022/07/17 01:13:47;;;;;;;4.18;1.80;;;;;;;11.57;94.73;101817.41;696135;28;1059;-42
2022/07/17 01:14:08;;;;;;;4.30;1.77;;;;;;;11.56;94.58;101817.38;694620;28;3810;-42
2022/07/17 01:14:28;;;;;;;4.30;1.90;;;;;;;11.55;93.93;101823.50;695038;28;4360;-43
2022/07/17 01:14:49;;;;;;;5.05;1.85;;;;;;;11.62;93.62;101816.59;695768;28;1142;-43
2022/07/17 01:15:10;;;;;;;4.45;1.90;;;;;;;11.61;93.75;101822.69;696267;28;983;-42
2022/07/17 01:15:33;;;;;;;4.18;1.80;;;;;;;11.71;93.03;101824.50;698185;28;1158;-43
2022/07/17 01:15:54;;;;;;;4.43;1.90;;;;;;;11.68;94.45;101820.13;700295;28;1516;-43
2022/07/17 01:16:15;;;;;;;4.53;1.92;;;;;;;11.63;94.94;101819.22;699474;28;1406;-43
2022/07/17 01:16:35;;;;;;;4.70;2.10;;;;;;;11.57;95.14;101822.66;700838;28;1106;-45
2022/07/17 01:16:55;;;;;;;4.63;1.90;;;;;;;11.55;95.00;101824.38;700089;28;1746;-42
2022/07/17 01:17:17;;;;;;;4.30;1.83;;;;;;;11.50;94.49;101819.94;699006;28;1105;-43
2022/07/17 01:17:38;;;;;;;3.60;1.98;;;;;;;11.50;94.22;101820.81;698977;28;4396;-42
2022/07/17 01:17:59;;;;;;;5.00;2.20;;;;;;;11.53;94.77;101823.50;699369;28;1163;-43
2022/07/17 01:18:19;;;;;;;5.30;2.20;;;;;;;11.54;94.49;101824.34;699268;28;959;-42
2022/07/17 01:18:41;;;;;;;4.67;2.03;;;;;;;11.51;94.83;101822.56;699589;28;1154;-41
2022/07/17 01:19:02;;;;;;;4.03;1.92;;;;;;;11.48;95.70;101824.28;699674;28;1216;-42
2022/07/17 01:19:22;;;;;;;4.82;2.15;;;;;;;11.54;96.17;101827.84;701548;28;1122;-43
2022/07/17 01:19:42;;;;;;;5.07;1.97;;;;;;;11.65;95.74;101821.84;699575;28;1740;-43
2022/07/17 01:20:08;;;;;;;4.35;1.90;;;;;;;11.63;94.45;101820.94;700179;28;1082;-44
2022/07/17 01:20:28;;;;;;;3.75;1.80;;;;;;;11.59;94.42;101817.44;700216;28;4304;-43
2022/07/17 01:20:49;;;;;;;4.47;1.90;;;;;;;11.58;94.33;101823.53;700244;28;1557;-41
2022/07/17 01:21:10;;;;;;;4.75;1.73;;;;;;;11.46;95.42;101819.03;700195;28;1241;-43
2022/07/17 01:21:41;;;;;;;4.60;2.00;;;;;;;11.40;95.74;101824.22;699833;28;1002;-43
2022/07/17 01:22:02;;;;;;;4.75;1.90;;;;;;;11.40;95.00;101818.97;700429;28;1066;-42
2022/07/17 01:22:22;;;;;;;5.17;1.90;;;;;;;11.39;95.76;101825.97;698389;28;1739;-42
2022/07/17 01:22:45;;;;;;;4.80;1.90;;;;;;;11.43;95.11;101823.38;700042;28;1070;-42
2022/07/17 01:23:05;;;;;;;5.07;2.20;;;;;;;11.39;96.12;101820.72;700186;28;955;-43
2022/07/17 01:23:26;;;;;;;5.40;1.97;;;;;;;11.37;96.21;101824.19;696227;28;4367;-42
2022/07/17 01:23:46;;;;;;;4.60;1.95;;;;;;;11.33;96.82;101819.78;697678;28;1926;-45
2022/07/17 01:24:07;;;;;;;4.43;2.07;;;;;;;11.30;96.12;101827.59;696147;28;1326;-43
2022/07/17 01:24:27;;;;;;;5.38;1.90;;;;;;;11.34;95.71;101825.03;695737;28;1237;-44
2022/07/17 01:24:47;;;;;;;4.63;2.00;;;;;;;11.36;95.04;101822.44;693715;28;885;-42
2022/07/17 01:25:09;;;;;;;5.18;1.90;;;;;;;11.38;94.52;101821.59;694334;28;1062;-41
2022/07/17 01:25:29;;;;;;;3.80;1.80;;;;;;;11.40;95.81;101825.09;698824;28;1169;-42
2022/07/17 01:25:49;;;;;;;4.83;2.00;;;;;;;11.45;95.83;101825.16;697668;28;1314;-42
2022/07/17 01:26:10;;;;;;;5.82;2.15;;;;;;;11.40;96.33;101824.22;696990;28;1296;-42
2022/07/17 01:26:30;;;;;;;5.67;2.10;;;;;;;11.29;97.00;101826.72;698324;28;4328;-42
2022/07/17 01:26:51;;;;;;;5.73;2.00;;;;;;;11.22;96.12;101824.91;700050;28;1566;-43
2022/07/17 01:27:11;;;;;;;4.77;1.90;;;;;;;11.24;96.21;101821.44;700146;28;1055;-42
2022/07/17 01:27:32;;;;;;;3.63;1.85;;;;;;;11.29;96.19;101823.22;698970;28;1245;-42
2022/07/17 01:27:52;;;;;;;3.60;1.97;;;;;;;11.30;95.71;101823.25;700843;28;1966;-42
2022/07/17 01:28:13;;;;;;;3.30;1.88;;;;;;;11.34;96.74;101822.41;700194;28;966;-42
2022/07/17 01:28:33;;;;;;;4.20;2.08;;;;;;;11.29;96.78;101826.72;700721;28;1360;-42
2022/07/17 01:28:54;;;;;;;4.23;2.17;;;;;;;11.21;97.26;101830.97;697356;28;1197;-43
2022/07/17 01:29:16;;;;;;;4.45;2.28;;;;;;;11.18;96.75;101829.22;696133;28;967;-44
2022/07/17 01:29:38;;;;;;;5.15;2.10;;;;;;;11.20;96.65;101829.22;696302;28;4497;-43
2022/07/17 01:29:58;;;;;;;4.00;1.90;;;;;;;11.19;96.56;101833.59;696670;28;1130;-43
2022/07/17 01:30:19;;;;;;;3.93;2.00;;;;;;;11.21;96.30;101826.63;696799;28;928;-44
2022/07/17 01:30:50;;;;;;;4.57;2.30;;;;;;;11.05;98.21;101824.72;698951;28;1062;-42
2022/07/17 01:31:11;;;;;;;4.80;2.00;;;;;;;10.95;98.64;101831.56;699265;28;1092;-42
2022/07/17 01:31:31;;;;;;;3.80;1.90;;;;;;;10.89;98.78;101834.97;699839;28;1308;-42
2022/07/17 01:31:52;;;;;;;4.85;2.00;;;;;;;10.96;98.25;101829.81;699503;28;1081;-42
2022/07/17 01:32:12;;;;;;;4.73;1.97;;;;;;;10.98;98.31;101825.47;696882;28;1383;-43
2022/07/17 01:32:37;;;;;;;5.47;2.10;;;;;;;10.99;98.76;101830.72;696003;28;4489;-42
2022/07/17 01:32:57;;;;;;;4.40;2.03;;;;;;;10.99;98.98;101824.63;697489;28;1199;-42
2022/07/17 01:33:19;;;;;;;4.30;1.95;;;;;;;10.94;99.13;101834.13;697026;28;1221;-43
2022/07/17 01:33:40;;;;;;;5.28;2.60;;;;;;;10.85;99.55;101830.56;694085;28;1096;-43
2022/07/17 01:34:00;;;;;;;5.40;2.00;;;;;;;10.76;100.00;101830.44;695681;28;1154;-42
2022/07/17 01:34:21;;;;;;;4.68;2.15;;;;;;;10.79;99.14;101827.00;695971;28;1219;-43
2022/07/17 01:34:41;;;;;;;4.90;2.17;;;;;;;10.87;98.78;101839.31;696717;28;1145;-41
2022/07/17 01:35:02;;;;;;;4.00;2.00;;;;;;;10.89;99.82;101829.72;697293;28;1589;-43
2022/07/17 01:35:23;;;;;;;5.05;2.17;;;;;;;10.93;99.61;101827.19;696340;28;4278;-42
2022/07/17 01:35:44;;;;;;;6.10;2.30;;;;;;;10.93;99.74;101835.03;700526;28;1062;-41
2022/07/17 01:36:04;;;;;;;5.33;2.40;;;;;;;10.97;98.15;101827.22;699553;28;1545;-42
2022/07/17 01:36:25;;;;;;;4.73;2.30;;;;;;;11.01;98.47;101826.41;699638;28;1161;-42
2022/07/17 01:36:45;;;;;;;5.22;2.00;;;;;;;11.04;97.86;101830.81;700609;28;1026;-42
2022/07/17 01:37:05;;;;;;;6.13;2.23;;;;;;;11.04;97.60;101828.19;699440;28;1138;-43
2022/07/17 01:37:26;;;;;;;6.17;2.20;;;;;;;11.04;97.80;101828.19;700152;28;1117;-44
2022/07/17 01:37:47;;;;;;;4.60;2.03;;;;;;;11.05;97.55;101837.78;698269;28;1727;-42
2022/07/17 01:38:08;;;;;;;4.03;2.00;;;;;;;11.04;98.26;101836.03;698409;28;1079;-42
2022/07/17 01:38:28;;;;;;;4.53;2.10;;;;;;;11.03;98.48;101829.91;697304;28;4712;-44
2022/07/17 01:38:49;;;;;;;3.88;2.10;;;;;;;10.92;99.32;101839.34;698641;28;1122;-41
2022/07/17 01:39:10;;;;;;;3.67;2.00;;;;;;;10.83;99.82;101836.66;696133;28;1230;-43
2022/07/17 01:40:14;;;;;;;4.07;2.15;;;;;;;10.90;98.66;101831.50;694579;28;1205;-44
2022/07/17 01:40:34;;;;;;;4.82;2.20;;;;;;;11.02;97.79;101832.50;693549;28;1373;-44
2022/07/17 01:40:54;;;;;;;4.75;2.13;;;;;;;11.03;98.84;101836.88;694970;28;1010;-42
2022/07/17 01:41:15;;;;;;;7.37;2.60;;;;;;;10.98;99.75;101830.72;695582;28;1256;-43